Search METAR Data

METAR Data for ENMS:

ENMS 301250Z 34009KT 300V020 9999 SCT059 21/09 Q1010 RMK WIND 412FT 32004KT